sensor_id;sensor_type;location;lat;lon;timestamp;pressure;altitude;pressure_sealevel;temperature;humidity
4972;BME280;2501;51.214;6.768;2023-03-20T00:01:10;101667.53;;;8.52;91.81
4972;BME280;2501;51.214;6.768;2023-03-20T00:03:39;101664.91;;;8.52;91.59
4972;BME280;2501;51.214;6.768;2023-03-20T00:06:13;101677.75;;;8.43;91.67
4972;BME280;2501;51.214;6.768;2023-03-20T00:08:43;101679.91;;;8.58;91.18
4972;BME280;2501;51.214;6.768;2023-03-20T00:11:26;101680.44;;;8.46;91.32
4972;BME280;2501;51.214;6.768;2023-03-20T00:14:01;101680.09;;;8.64;91.04
4972;BME280;2501;51.214;6.768;2023-03-20T00:16:32;101685.84;;;8.52;90.54
4972;BME280;2501;51.214;6.768;2023-03-20T00:19:02;101685.75;;;8.49;90.55
4972;BME280;2501;51.214;6.768;2023-03-20T00:21:31;101687.56;;;8.52;90.32
4972;BME280;2501;51.214;6.768;2023-03-20T00:24:00;101692.69;;;8.49;90.28
4972;BME280;2501;51.214;6.768;2023-03-20T00:26:32;101686.63;;;8.50;90.50
4972;BME280;2501;51.214;6.768;2023-03-20T00:29:06;101690.03;;;8.46;90.47
4972;BME280;2501;51.214;6.768;2023-03-20T00:31:36;101684.69;;;8.43;90.77
4972;BME280;2501;51.214;6.768;2023-03-20T00:34:09;101690.84;;;8.45;90.56
4972;BME280;2501;51.214;6.768;2023-03-20T00:36:39;101691.94;;;8.53;90.78
4972;BME280;2501;51.214;6.768;2023-03-20T00:39:07;101687.84;;;8.32;90.88
4972;BME280;2501;51.214;6.768;2023-03-20T00:41:41;101689.25;;;8.50;90.78
4972;BME280;2501;51.214;6.768;2023-03-20T00:44:20;101688.78;;;8.63;90.63
4972;BME280;2501;51.214;6.768;2023-03-20T00:46:52;101694.72;;;8.57;89.42
4972;BME280;2501;51.214;6.768;2023-03-20T00:49:23;101699.09;;;8.58;89.53
4972;BME280;2501;51.214;6.768;2023-03-20T00:51:53;101697.22;;;8.54;89.62
4972;BME280;2501;51.214;6.768;2023-03-20T00:54:21;101689.34;;;8.53;90.06
4972;BME280;2501;51.214;6.768;2023-03-20T00:56:53;101682.25;;;8.49;90.41
4972;BME280;2501;51.214;6.768;2023-03-20T00:59:28;101676.44;;;8.59;90.14
4972;BME280;2501;51.214;6.768;2023-03-20T01:01:58;101678.38;;;8.64;89.84
4972;BME280;2501;51.214;6.768;2023-03-20T01:04:33;101681.09;;;8.69;89.27
4972;BME280;2501;51.214;6.768;2023-03-20T01:07:03;101682.44;;;8.55;89.56
4972;BME280;2501;51.214;6.768;2023-03-20T01:09:32;101675.31;;;8.51;90.16
4972;BME280;2501;51.214;6.768;2023-03-20T01:12:01;101663.09;;;8.50;90.25
4972;BME280;2501;51.214;6.768;2023-03-20T01:14:34;101667.13;;;8.68;89.95
4972;BME280;2501;51.214;6.768;2023-03-20T01:17:03;101670.38;;;8.60;90.10
4972;BME280;2501;51.214;6.768;2023-03-20T01:19:32;101663.84;;;8.44;90.28
4972;BME280;2501;51.214;6.768;2023-03-20T01:22:00;101661.50;;;8.55;90.55
4972;BME280;2501;51.214;6.768;2023-03-20T01:24:29;101659.44;;;8.43;90.85
4972;BME280;2501;51.214;6.768;2023-03-20T01:26:58;101660.94;;;8.35;91.30
4972;BME280;2501;51.214;6.768;2023-03-20T01:29:29;101656.53;;;8.34;91.29
4972;BME280;2501;51.214;6.768;2023-03-20T01:32:01;101652.00;;;8.28;91.43
4972;BME280;2501;51.214;6.768;2023-03-20T01:34:29;101662.00;;;8.42;91.17
4972;BME280;2501;51.214;6.768;2023-03-20T01:36:57;101659.56;;;8.19;91.48
4972;BME280;2501;51.214;6.768;2023-03-20T01:39:30;101659.59;;;8.21;92.09
4972;BME280;2501;51.214;6.768;2023-03-20T01:42:01;101653.31;;;8.14;92.15
4972;BME280;2501;51.214;6.768;2023-03-20T01:44:31;101649.63;;;8.08;92.58
4972;BME280;2501;51.214;6.768;2023-03-20T01:47:13;101644.47;;;8.09;93.20
4972;BME280;2501;51.214;6.768;2023-03-20T01:50:13;101645.66;;;8.20;93.10
4972;BME280;2501;51.214;6.768;2023-03-20T01:52:47;101648.97;;;8.15;92.65
4972;BME280;2501;51.214;6.768;2023-03-20T01:55:18;101647.91;;;8.08;92.70
4972;BME280;2501;51.214;6.768;2023-03-20T01:57:49;101651.41;;;8.09;92.86
4972;BME280;2501;51.214;6.768;2023-03-20T02:00:19;101662.56;;;8.03;93.23
4972;BME280;2501;51.214;6.768;2023-03-20T02:02:50;101664.09;;;7.96;93.38
4972;BME280;2501;51.214;6.768;2023-03-20T02:05:20;101657.09;;;7.95;93.69
4972;BME280;2501;51.214;6.768;2023-03-20T02:07:57;101664.97;;;7.97;93.80
4972;BME280;2501;51.214;6.768;2023-03-20T02:10:26;101669.13;;;7.90;93.99
4972;BME280;2501;51.214;6.768;2023-03-20T02:12:55;101670.81;;;7.88;93.92
4972;BME280;2501;51.214;6.768;2023-03-20T02:15:25;101673.47;;;7.90;93.99
4972;BME280;2501;51.214;6.768;2023-03-20T02:17:57;101673.41;;;7.88;94.06
4972;BME280;2501;51.214;6.768;2023-03-20T02:20:32;101675.16;;;7.88;94.35
4972;BME280;2501;51.214;6.768;2023-03-20T02:23:24;101663.03;;;7.90;94.11
4972;BME280;2501;51.214;6.768;2023-03-20T02:26:13;101662.09;;;7.88;94.26
4972;BME280;2501;51.214;6.768;2023-03-20T02:35:32;101656.22;;;7.68;96.00
4972;BME280;2501;51.214;6.768;2023-03-20T02:38:20;101658.78;;;7.93;95.52
4972;BME280;2501;51.214;6.768;2023-03-20T02:40:56;101650.56;;;8.10;94.67
4972;BME280;2501;51.214;6.768;2023-03-20T02:43:35;101650.84;;;7.63;95.23
4972;BME280;2501;51.214;6.768;2023-03-20T02:46:12;101665.22;;;8.04;95.07
4972;BME280;2501;51.214;6.768;2023-03-20T02:48:47;101667.56;;;7.95;94.48
4972;BME280;2501;51.214;6.768;2023-03-20T02:51:23;101680.41;;;7.89;94.70
4972;BME280;2501;51.214;6.768;2023-03-20T02:54:01;101681.41;;;7.93;94.70
4972;BME280;2501;51.214;6.768;2023-03-20T02:56:36;101669.19;;;7.92;94.70
4972;BME280;2501;51.214;6.768;2023-03-20T02:59:13;101668.34;;;7.93;94.88
4972;BME280;2501;51.214;6.768;2023-03-20T03:01:48;101665.59;;;7.88;94.62
4972;BME280;2501;51.214;6.768;2023-03-20T03:04:20;101667.94;;;7.81;94.91
4972;BME280;2501;51.214;6.768;2023-03-20T03:06:52;101669.44;;;7.73;94.64
4972;BME280;2501;51.214;6.768;2023-03-20T03:09:28;101684.72;;;7.60;94.96
4972;BME280;2501;51.214;6.768;2023-03-20T03:12:01;101685.22;;;7.76;94.65
4972;BME280;2501;51.214;6.768;2023-03-20T03:14:36;101683.75;;;7.85;94.34
4972;BME280;2501;51.214;6.768;2023-03-20T03:17:07;101674.31;;;7.89;94.19
4972;BME280;2501;51.214;6.768;2023-03-20T03:19:38;101662.00;;;8.13;93.76
4972;BME280;2501;51.214;6.768;2023-03-20T03:22:09;101639.88;;;7.74;93.20
4972;BME280;2501;51.214;6.768;2023-03-20T03:24:43;101639.53;;;7.36;94.81
4972;BME280;2501;51.214;6.768;2023-03-20T03:27:16;101644.69;;;7.34;95.95
4972;BME280;2501;51.214;6.768;2023-03-20T03:29:51;101637.69;;;7.33;96.60
4972;BME280;2501;51.214;6.768;2023-03-20T03:32:25;101650.06;;;7.39;97.02
4972;BME280;2501;51.214;6.768;2023-03-20T03:34:55;101659.69;;;7.40;97.47
4972;BME280;2501;51.214;6.768;2023-03-20T03:37:32;101666.78;;;7.44;97.27
4972;BME280;2501;51.214;6.768;2023-03-20T03:40:17;101665.97;;;7.47;97.33
4972;BME280;2501;51.214;6.768;2023-03-20T03:42:52;101667.69;;;7.46;97.69
4972;BME280;2501;51.214;6.768;2023-03-20T03:45:28;101682.56;;;7.49;97.42
4972;BME280;2501;51.214;6.768;2023-03-20T03:48:00;101682.28;;;7.93;96.58
4972;BME280;2501;51.214;6.768;2023-03-20T03:50:35;101672.69;;;7.92;94.69
4972;BME280;2501;51.214;6.768;2023-03-20T03:53:09;101668.19;;;8.17;92.82
4972;BME280;2501;51.214;6.768;2023-03-20T03:55:45;101673.34;;;8.14;92.03
4972;BME280;2501;51.214;6.768;2023-03-20T03:58:18;101678.22;;;8.31;89.96
4972;BME280;2501;51.214;6.768;2023-03-20T04:00:49;101673.47;;;8.18;89.15
4972;BME280;2501;51.214;6.768;2023-03-20T04:03:22;101665.38;;;7.82;89.78
4972;BME280;2501;51.214;6.768;2023-03-20T04:05:53;101656.59;;;8.07;89.88
4972;BME280;2501;51.214;6.768;2023-03-20T04:08:24;101664.63;;;8.13;88.72
4972;BME280;2501;51.214;6.768;2023-03-20T04:10:55;101676.66;;;8.08;88.21
4972;BME280;2501;51.214;6.768;2023-03-20T04:13:23;101679.72;;;7.95;88.62
4972;BME280;2501;51.214;6.768;2023-03-20T04:15:51;101673.25;;;7.84;88.50
4972;BME280;2501;51.214;6.768;2023-03-20T04:18:20;101669.66;;;7.79;89.12
4972;BME280;2501;51.214;6.768;2023-03-20T04:20:48;101664.44;;;7.80;88.82
4972;BME280;2501;51.214;6.768;2023-03-20T04:23:17;101649.72;;;7.82;88.72
4972;BME280;2501;51.214;6.768;2023-03-20T04:25:46;101652.50;;;7.60;90.13
4972;BME280;2501;51.214;6.768;2023-03-20T04:28:17;101655.53;;;7.74;89.73
4972;BME280;2501;51.214;6.768;2023-03-20T04:30:51;101643.59;;;7.82;89.72
4972;BME280;2501;51.214;6.768;2023-03-20T04:33:20;101647.63;;;7.45;89.90
4972;BME280;2501;51.214;6.768;2023-03-20T04:35:48;101642.81;;;7.30;91.54
4972;BME280;2501;51.214;6.768;2023-03-20T04:38:17;101649.06;;;7.36;92.32
4972;BME280;2501;51.214;6.768;2023-03-20T04:40:47;101654.78;;;7.24;92.72
4972;BME280;2501;51.214;6.768;2023-03-20T04:43:19;101660.72;;;7.20;92.71
4972;BME280;2501;51.214;6.768;2023-03-20T04:45:47;101661.03;;;7.29;91.98
4972;BME280;2501;51.214;6.768;2023-03-20T04:48:16;101656.94;;;7.12;92.74
4972;BME280;2501;51.214;6.768;2023-03-20T04:50:44;101653.50;;;7.13;93.22
4972;BME280;2501;51.214;6.768;2023-03-20T04:53:15;101653.72;;;7.19;93.41
4972;BME280;2501;51.214;6.768;2023-03-20T04:55:44;101665.91;;;6.94;93.24
4972;BME280;2501;51.214;6.768;2023-03-20T04:58:14;101659.88;;;6.95;93.83
4972;BME280;2501;51.214;6.768;2023-03-20T05:00:45;101658.91;;;6.92;93.72
4972;BME280;2501;51.214;6.768;2023-03-20T05:03:13;101654.59;;;6.94;94.08
4972;BME280;2501;51.214;6.768;2023-03-20T05:05:42;101652.88;;;6.94;94.14
4972;BME280;2501;51.214;6.768;2023-03-20T05:08:16;101652.03;;;6.95;94.06
4972;BME280;2501;51.214;6.768;2023-03-20T05:10:49;101650.75;;;6.83;94.09
4972;BME280;2501;51.214;6.768;2023-03-20T05:13:20;101653.53;;;6.87;94.11
4972;BME280;2501;51.214;6.768;2023-03-20T05:16:03;101654.56;;;6.92;94.33
4972;BME280;2501;51.214;6.768;2023-03-20T05:18:34;101649.03;;;6.83;94.46
4972;BME280;2501;51.214;6.768;2023-03-20T05:21:03;101653.41;;;6.84;94.58
4972;BME280;2501;51.214;6.768;2023-03-20T05:23:31;101654.00;;;6.77;95.00
4972;BME280;2501;51.214;6.768;2023-03-20T05:26:00;101655.00;;;6.81;95.36
4972;BME280;2501;51.214;6.768;2023-03-20T05:28:28;101652.56;;;6.85;95.59
4972;BME280;2501;51.214;6.768;2023-03-20T05:30:57;101653.81;;;6.71;95.75
4972;BME280;2501;51.214;6.768;2023-03-20T05:33:28;101654.91;;;6.78;96.00
4972;BME280;2501;51.214;6.768;2023-03-20T05:35:57;101661.94;;;6.80;96.50
4972;BME280;2501;51.214;6.768;2023-03-20T05:38:25;101662.66;;;6.76;96.98
4972;BME280;2501;51.214;6.768;2023-03-20T05:40:56;101659.13;;;6.74;97.69
4972;BME280;2501;51.214;6.768;2023-03-20T05:43:25;101664.94;;;6.67;97.77
4972;BME280;2501;51.214;6.768;2023-03-20T05:45:54;101662.72;;;6.78;98.16
4972;BME280;2501;51.214;6.768;2023-03-20T05:48:23;101666.00;;;6.72;98.67
4972;BME280;2501;51.214;6.768;2023-03-20T05:50:54;101669.44;;;6.71;98.81
4972;BME280;2501;51.214;6.768;2023-03-20T05:53:22;101664.25;;;6.71;99.25
4972;BME280;2501;51.214;6.768;2023-03-20T05:55:51;101662.63;;;6.75;99.53
4972;BME280;2501;51.214;6.768;2023-03-20T05:58:19;101666.13;;;6.75;99.33
4972;BME280;2501;51.214;6.768;2023-03-20T06:00:48;101661.88;;;6.79;99.52
4972;BME280;2501;51.214;6.768;2023-03-20T06:03:16;101656.53;;;6.74;99.32
4972;BME280;2501;51.214;6.768;2023-03-20T06:05:45;101657.97;;;6.66;99.80
4972;BME280;2501;51.214;6.768;2023-03-20T06:08:16;101662.47;;;6.70;100.00
4972;BME280;2501;51.214;6.768;2023-03-20T06:10:44;101665.19;;;6.73;99.97
4972;BME280;2501;51.214;6.768;2023-03-20T06:13:13;101669.72;;;6.79;99.95
4972;BME280;2501;51.214;6.768;2023-03-20T06:15:41;101666.97;;;6.76;99.65
4972;BME280;2501;51.214;6.768;2023-03-20T06:18:09;101664.00;;;6.65;99.29
4972;BME280;2501;51.214;6.768;2023-03-20T06:20:38;101666.91;;;6.73;99.41
4972;BME280;2501;51.214;6.768;2023-03-20T06:23:06;101659.03;;;6.71;99.32
4972;BME280;2501;51.214;6.768;2023-03-20T06:25:37;101659.91;;;6.72;99.21
4972;BME280;2501;51.214;6.768;2023-03-20T06:28:06;101661.13;;;6.81;99.14
4972;BME280;2501;51.214;6.768;2023-03-20T06:30:34;101658.00;;;6.91;98.95
4972;BME280;2501;51.214;6.768;2023-03-20T06:33:04;101657.63;;;6.81;98.88
4972;BME280;2501;51.214;6.768;2023-03-20T06:35:33;101664.94;;;6.91;98.87
4972;BME280;2501;51.214;6.768;2023-03-20T06:38:01;101667.63;;;6.92;98.76
4972;BME280;2501;51.214;6.768;2023-03-20T06:40:30;101664.13;;;6.93;98.36
4972;BME280;2501;51.214;6.768;2023-03-20T06:43:01;101669.41;;;6.95;98.17
4972;BME280;2501;51.214;6.768;2023-03-20T06:45:30;101667.63;;;6.94;98.00
4972;BME280;2501;51.214;6.768;2023-03-20T06:47:59;101678.28;;;7.00;97.78
4972;BME280;2501;51.214;6.768;2023-03-20T06:50:27;101682.84;;;7.06;97.15
4972;BME280;2501;51.214;6.768;2023-03-20T06:52:59;101688.19;;;7.09;96.58
4972;BME280;2501;51.214;6.768;2023-03-20T06:55:28;101690.03;;;7.13;95.90
4972;BME280;2501;51.214;6.768;2023-03-20T06:57:57;101699.03;;;7.21;95.45
4972;BME280;2501;51.214;6.768;2023-03-20T07:00:28;101708.81;;;7.26;94.80
4972;BME280;2501;51.214;6.768;2023-03-20T07:02:57;101700.16;;;7.29;93.96
4972;BME280;2501;51.214;6.768;2023-03-20T07:05:25;101710.03;;;7.38;93.15
4972;BME280;2501;51.214;6.768;2023-03-20T07:07:54;101709.41;;;7.45;92.68
4972;BME280;2501;51.214;6.768;2023-03-20T07:10:22;101710.34;;;7.47;92.22
4972;BME280;2501;51.214;6.768;2023-03-20T07:12:51;101717.28;;;7.46;91.58
4972;BME280;2501;51.214;6.768;2023-03-20T07:15:20;101718.72;;;7.37;91.12
4972;BME280;2501;51.214;6.768;2023-03-20T07:17:52;101725.44;;;7.55;89.75
4972;BME280;2501;51.214;6.768;2023-03-20T07:20:21;101721.63;;;7.46;89.75
4972;BME280;2501;51.214;6.768;2023-03-20T07:22:49;101721.28;;;7.62;89.66
4972;BME280;2501;51.214;6.768;2023-03-20T07:25:18;101721.09;;;8.36;88.33
4972;BME280;2501;51.214;6.768;2023-03-20T07:27:47;101715.38;;;8.50;84.73
4972;BME280;2501;51.214;6.768;2023-03-20T07:30:16;101713.00;;;8.57;82.47
4972;BME280;2501;51.214;6.768;2023-03-20T07:32:45;101713.69;;;8.80;80.99
4972;BME280;2501;51.214;6.768;2023-03-20T07:35:16;101716.22;;;8.20;81.19
4972;BME280;2501;51.214;6.768;2023-03-20T07:37:45;101715.41;;;7.94;83.11
4972;BME280;2501;51.214;6.768;2023-03-20T07:40:14;101711.91;;;7.94;83.51
4972;BME280;2501;51.214;6.768;2023-03-20T07:42:43;101721.59;;;7.96;83.85
4972;BME280;2501;51.214;6.768;2023-03-20T07:45:12;101726.97;;;8.02;83.99
4972;BME280;2501;51.214;6.768;2023-03-20T07:47:43;101718.91;;;7.95;83.63
4972;BME280;2501;51.214;6.768;2023-03-20T07:50:12;101726.94;;;8.01;83.78
4972;BME280;2501;51.214;6.768;2023-03-20T07:52:47;101724.47;;;8.06;83.82
4972;BME280;2501;51.214;6.768;2023-03-20T07:55:16;101722.91;;;8.11;83.00
4972;BME280;2501;51.214;6.768;2023-03-20T07:57:46;101730.47;;;8.30;82.92
4972;BME280;2501;51.214;6.768;2023-03-20T08:00:16;101731.50;;;8.35;82.25
4972;BME280;2501;51.214;6.768;2023-03-20T08:02:45;101732.31;;;8.61;80.42
4972;BME280;2501;51.214;6.768;2023-03-20T08:05:14;101743.63;;;8.33;80.83
4972;BME280;2501;51.214;6.768;2023-03-20T08:07:42;101737.25;;;8.52;81.06
4972;BME280;2501;51.214;6.768;2023-03-20T08:10:13;101738.72;;;8.72;80.81
4972;BME280;2501;51.214;6.768;2023-03-20T08:12:42;101741.88;;;8.90;79.77
4972;BME280;2501;51.214;6.768;2023-03-20T08:15:11;101729.69;;;8.61;79.81
4972;BME280;2501;51.214;6.768;2023-03-20T08:17:41;101739.06;;;8.54;79.92
4972;BME280;2501;51.214;6.768;2023-03-20T08:20:11;101736.13;;;8.44;80.03
4972;BME280;2501;51.214;6.768;2023-03-20T08:22:40;101733.50;;;8.72;79.76
4972;BME280;2501;51.214;6.768;2023-03-20T08:25:13;101744.03;;;8.45;79.20
4972;BME280;2501;51.214;6.768;2023-03-20T08:27:41;101736.44;;;9.14;78.47
4972;BME280;2501;51.214;6.768;2023-03-20T08:30:11;101735.31;;;9.06;75.43
4972;BME280;2501;51.214;6.768;2023-03-20T08:32:40;101738.53;;;8.96;76.85
4972;BME280;2501;51.214;6.768;2023-03-20T08:35:09;101744.19;;;9.11;76.09
4972;BME280;2501;51.214;6.768;2023-03-20T08:37:38;101745.25;;;9.84;71.93
4972;BME280;2501;51.214;6.768;2023-03-20T08:40:08;101749.50;;;9.80;70.89
4972;BME280;2501;51.214;6.768;2023-03-20T08:42:39;101748.41;;;9.72;70.31
4972;BME280;2501;51.214;6.768;2023-03-20T08:45:08;101743.69;;;9.24;70.67
4972;BME280;2501;51.214;6.768;2023-03-20T08:47:37;101736.84;;;9.62;70.32
4972;BME280;2501;51.214;6.768;2023-03-20T08:50:06;101740.63;;;9.75;70.44
4972;BME280;2501;51.214;6.768;2023-03-20T08:52:35;101737.66;;;9.27;70.78
4972;BME280;2501;51.214;6.768;2023-03-20T08:55:08;101745.31;;;9.52;71.85
4972;BME280;2501;51.214;6.768;2023-03-20T08:57:39;101742.13;;;9.31;71.06
4972;BME280;2501;51.214;6.768;2023-03-20T09:00:11;101742.19;;;9.67;70.27
4972;BME280;2501;51.214;6.768;2023-03-20T09:02:40;101740.91;;;10.22;68.37
4972;BME280;2501;51.214;6.768;2023-03-20T09:05:09;101749.72;;;9.22;69.91
4972;BME280;2501;51.214;6.768;2023-03-20T09:07:37;101752.53;;;9.97;68.24
4972;BME280;2501;51.214;6.768;2023-03-20T09:10:07;101745.84;;;9.40;67.39
4972;BME280;2501;51.214;6.768;2023-03-20T09:12:39;101752.66;;;9.32;69.25
4972;BME280;2501;51.214;6.768;2023-03-20T09:15:08;101752.47;;;9.94;68.04
4972;BME280;2501;51.214;6.768;2023-03-20T09:17:37;101745.59;;;9.99;66.03
4972;BME280;2501;51.214;6.768;2023-03-20T09:20:06;101741.56;;;9.77;66.14
4972;BME280;2501;51.214;6.768;2023-03-20T09:22:35;101735.44;;;10.12;65.81
4972;BME280;2501;51.214;6.768;2023-03-20T09:25:06;101735.00;;;10.30;64.93
4972;BME280;2501;51.214;6.768;2023-03-20T09:27:35;101742.97;;;8.98;67.77
4972;BME280;2501;51.214;6.768;2023-03-20T09:30:08;101745.00;;;9.74;67.70
4972;BME280;2501;51.214;6.768;2023-03-20T09:32:37;101743.03;;;10.00;65.39
4972;BME280;2501;51.214;6.768;2023-03-20T09:35:06;101747.94;;;9.88;65.13
4972;BME280;2501;51.214;6.768;2023-03-20T09:37:34;101743.38;;;9.80;65.23
4972;BME280;2501;51.214;6.768;2023-03-20T09:40:04;101735.78;;;9.56;67.23
4972;BME280;2501;51.214;6.768;2023-03-20T09:42:41;101739.19;;;9.20;68.49
4972;BME280;2501;51.214;6.768;2023-03-20T09:45:21;101745.47;;;9.25;68.42
4972;BME280;2501;51.214;6.768;2023-03-20T09:48:00;101744.22;;;9.44;68.12
4972;BME280;2501;51.214;6.768;2023-03-20T09:50:35;101740.16;;;9.57;66.67
4972;BME280;2501;51.214;6.768;2023-03-20T09:53:10;101744.78;;;9.65;66.11
4972;BME280;2501;51.214;6.768;2023-03-20T09:55:39;101737.88;;;9.34;65.94
4972;BME280;2501;51.214;6.768;2023-03-20T09:58:12;101737.72;;;9.30;65.42
4972;BME280;2501;51.214;6.768;2023-03-20T10:00:45;101742.34;;;9.40;65.37
4972;BME280;2501;51.214;6.768;2023-03-20T10:03:18;101738.19;;;9.47;65.10
4972;BME280;2501;51.214;6.768;2023-03-20T10:05:52;101743.63;;;9.23;65.49
4972;BME280;2501;51.214;6.768;2023-03-20T10:08:27;101738.31;;;9.20;64.85
4972;BME280;2501;51.214;6.768;2023-03-20T10:11:04;101749.75;;;9.56;64.74
4972;BME280;2501;51.214;6.768;2023-03-20T10:13:41;101742.41;;;9.76;64.64
4972;BME280;2501;51.214;6.768;2023-03-20T10:16:27;101745.44;;;9.58;64.01
4972;BME280;2501;51.214;6.768;2023-03-20T10:19:09;101742.16;;;9.65;64.27
4972;BME280;2501;51.214;6.768;2023-03-20T10:21:42;101740.75;;;9.45;64.33
4972;BME280;2501;51.214;6.768;2023-03-20T10:24:16;101745.41;;;9.24;63.77
4972;BME280;2501;51.214;6.768;2023-03-20T10:26:51;101740.13;;;9.55;63.07
4972;BME280;2501;51.214;6.768;2023-03-20T10:29:26;101736.28;;;9.75;63.40
4972;BME280;2501;51.214;6.768;2023-03-20T10:32:09;101741.16;;;9.27;64.00
4972;BME280;2501;51.214;6.768;2023-03-20T10:34:49;101747.19;;;9.25;64.36
4972;BME280;2501;51.214;6.768;2023-03-20T10:37:30;101739.69;;;9.38;64.36
4972;BME280;2501;51.214;6.768;2023-03-20T10:40:18;101739.50;;;9.64;62.64
4972;BME280;2501;51.214;6.768;2023-03-20T10:42:53;101736.63;;;9.22;63.68
4972;BME280;2501;51.214;6.768;2023-03-20T10:45:34;101736.41;;;9.46;63.21
4972;BME280;2501;51.214;6.768;2023-03-20T10:48:11;101735.28;;;9.69;64.23
4972;BME280;2501;51.214;6.768;2023-03-20T10:50:46;101729.16;;;10.06;61.82
4972;BME280;2501;51.214;6.768;2023-03-20T10:53:27;101731.69;;;10.01;61.95
4972;BME280;2501;51.214;6.768;2023-03-20T10:56:01;101730.41;;;9.84;62.00
4972;BME280;2501;51.214;6.768;2023-03-20T10:58:33;101731.84;;;9.73;62.16
4972;BME280;2501;51.214;6.768;2023-03-20T11:01:04;101734.94;;;9.57;64.58
4972;BME280;2501;51.214;6.768;2023-03-20T11:03:35;101730.16;;;9.75;64.03
4972;BME280;2501;51.214;6.768;2023-03-20T11:06:11;101729.56;;;9.18;65.16
4972;BME280;2501;51.214;6.768;2023-03-20T11:08:45;101725.28;;;9.21;65.81
4972;BME280;2501;51.214;6.768;2023-03-20T11:11:21;101727.44;;;9.04;65.53
4972;BME280;2501;51.214;6.768;2023-03-20T11:13:51;101722.22;;;8.75;65.67
4972;BME280;2501;51.214;6.768;2023-03-20T11:16:21;101707.28;;;9.33;64.60
4972;BME280;2501;51.214;6.768;2023-03-20T11:18:53;101715.44;;;9.13;65.38
4972;BME280;2501;51.214;6.768;2023-03-20T11:21:25;101716.13;;;9.38;65.38
4972;BME280;2501;51.214;6.768;2023-03-20T11:23:54;101704.00;;;9.76;64.57
4972;BME280;2501;51.214;6.768;2023-03-20T11:26:33;101706.06;;;9.90;63.02
4972;BME280;2501;51.214;6.768;2023-03-20T11:29:05;101700.28;;;10.03;61.75
4972;BME280;2501;51.214;6.768;2023-03-20T11:31:37;101705.69;;;9.07;65.08
4972;BME280;2501;51.214;6.768;2023-03-20T11:34:22;101698.41;;;9.61;63.19
4972;BME280;2501;51.214;6.768;2023-03-20T11:36:57;101702.31;;;9.44;64.25
4972;BME280;2501;51.214;6.768;2023-03-20T11:39:27;101700.41;;;9.38;63.97
4972;BME280;2501;51.214;6.768;2023-03-20T11:41:59;101709.88;;;9.00;65.15
4972;BME280;2501;51.214;6.768;2023-03-20T11:44:29;101715.13;;;9.66;64.97
4972;BME280;2501;51.214;6.768;2023-03-20T11:47:00;101702.66;;;9.94;63.11
4972;BME280;2501;51.214;6.768;2023-03-20T11:49:43;101703.44;;;9.54;63.85
4972;BME280;2501;51.214;6.768;2023-03-20T11:52:20;101708.09;;;9.65;65.52
4972;BME280;2501;51.214;6.768;2023-03-20T11:54:51;101699.78;;;9.47;66.46
4972;BME280;2501;51.214;6.768;2023-03-20T11:57:30;101703.03;;;9.73;65.93
4972;BME280;2501;51.214;6.768;2023-03-20T12:00:02;101712.44;;;9.30;67.04
4972;BME280;2501;51.214;6.768;2023-03-20T12:02:32;101708.22;;;9.37;67.38
4972;BME280;2501;51.214;6.768;2023-03-20T12:05:18;101709.97;;;9.36;68.50
4972;BME280;2501;51.214;6.768;2023-03-20T12:07:48;101711.28;;;9.52;67.87
4972;BME280;2501;51.214;6.768;2023-03-20T12:10:27;101712.59;;;9.71;66.75
4972;BME280;2501;51.214;6.768;2023-03-20T12:12:58;101703.41;;;9.52;68.32
4972;BME280;2501;51.214;6.768;2023-03-20T12:15:31;101707.47;;;9.08;71.59
4972;BME280;2501;51.214;6.768;2023-03-20T12:18:02;101703.13;;;9.76;69.49
4972;BME280;2501;51.214;6.768;2023-03-20T12:20:41;101696.59;;;9.95;67.55
4972;BME280;2501;51.214;6.768;2023-03-20T12:23:12;101697.28;;;9.17;70.45
4972;BME280;2501;51.214;6.768;2023-03-20T12:25:48;101693.81;;;8.57;72.07
4972;BME280;2501;51.214;6.768;2023-03-20T12:28:22;101691.78;;;8.77;71.76
4972;BME280;2501;51.214;6.768;2023-03-20T12:31:03;101689.56;;;9.23;69.85
4972;BME280;2501;51.214;6.768;2023-03-20T12:33:43;101691.97;;;8.83;72.37
4972;BME280;2501;51.214;6.768;2023-03-20T12:36:24;101683.59;;;8.66;73.62
4972;BME280;2501;51.214;6.768;2023-03-20T12:38:53;101679.69;;;8.80;74.10
4972;BME280;2501;51.214;6.768;2023-03-20T12:41:24;101679.16;;;9.26;74.15
4972;BME280;2501;51.214;6.768;2023-03-20T12:44:15;101679.25;;;8.96;73.98
4972;BME280;2501;51.214;6.768;2023-03-20T12:46:54;101671.72;;;9.08;72.02
4972;BME280;2501;51.214;6.768;2023-03-20T12:49:33;101672.28;;;9.30;71.51
4972;BME280;2501;51.214;6.768;2023-03-20T12:52:12;101663.50;;;9.28;73.29
4972;BME280;2501;51.214;6.768;2023-03-20T12:55:03;101666.56;;;9.12;73.83
4972;BME280;2501;51.214;6.768;2023-03-20T12:57:46;101667.16;;;9.00;72.48
4972;BME280;2501;51.214;6.768;2023-03-20T13:00:23;101658.84;;;9.16;71.42
4972;BME280;2501;51.214;6.768;2023-03-20T13:03:15;101657.22;;;9.21;70.39
4972;BME280;2501;51.214;6.768;2023-03-20T13:05:50;101654.38;;;9.12;71.57
4972;BME280;2501;51.214;6.768;2023-03-20T13:08:37;101653.06;;;9.29;70.70
4972;BME280;2501;51.214;6.768;2023-03-20T13:11:15;101647.22;;;9.39;69.53
4972;BME280;2501;51.214;6.768;2023-03-20T13:13:50;101649.28;;;8.85;71.62
4972;BME280;2501;51.214;6.768;2023-03-20T13:16:25;101645.25;;;8.96;72.34
4972;BME280;2501;51.214;6.768;2023-03-20T13:19:03;101646.66;;;8.85;72.63
4972;BME280;2501;51.214;6.768;2023-03-20T13:21:41;101639.69;;;9.17;71.96
4972;BME280;2501;51.214;6.768;2023-03-20T13:24:23;101637.97;;;9.19;71.48
4972;BME280;2501;51.214;6.768;2023-03-20T13:27:00;101633.63;;;8.87;72.41
4972;BME280;2501;51.214;6.768;2023-03-20T13:29:39;101631.56;;;8.75;72.90
4972;BME280;2501;51.214;6.768;2023-03-20T13:32:19;101629.34;;;9.23;72.53
4972;BME280;2501;51.214;6.768;2023-03-20T13:35:07;101621.81;;;9.02;72.97
4972;BME280;2501;51.214;6.768;2023-03-20T13:37:45;101623.47;;;9.32;72.31
4972;BME280;2501;51.214;6.768;2023-03-20T13:40:20;101622.47;;;9.27;72.01
4972;BME280;2501;51.214;6.768;2023-03-20T13:42:53;101629.53;;;9.65;69.87
4972;BME280;2501;51.214;6.768;2023-03-20T13:45:29;101618.59;;;9.83;68.62
4972;BME280;2501;51.214;6.768;2023-03-20T13:48:06;101614.78;;;9.33;69.58
4972;BME280;2501;51.214;6.768;2023-03-20T13:50:44;101618.44;;;9.41;68.97
4972;BME280;2501;51.214;6.768;2023-03-20T13:53:25;101622.50;;;9.64;68.25
4972;BME280;2501;51.214;6.768;2023-03-20T13:56:04;101619.00;;;10.01;67.56
4972;BME280;2501;51.214;6.768;2023-03-20T13:58:50;101614.56;;;9.61;68.13